createdAt,value
2023-03-06T00:02:30.077Z,97769.06
2023-03-06T00:05:31.632Z,97768.19
2023-03-06T00:08:33.194Z,97767.28
2023-03-06T00:11:34.676Z,97756.97
2023-03-06T00:14:36.325Z,97756.13
2023-03-06T00:17:37.839Z,97758.63
2023-03-06T00:20:39.969Z,97751.75
2023-03-06T00:23:41.423Z,97743.16
2023-03-06T00:26:43.261Z,97745.88
2023-03-06T00:29:44.823Z,97745.03
2023-03-06T00:32:46.304Z,97749.41
2023-03-06T00:35:47.806Z,97748.53
2023-03-06T00:38:49.313Z,97745.09
2023-03-06T00:41:50.790Z,97743.38
2023-03-06T00:44:52.353Z,97741.66
2023-03-06T00:47:53.899Z,97740.59
2023-03-06T00:50:55.402Z,97742.31
2023-03-06T00:53:56.944Z,97749.06
2023-03-06T00:56:58.416Z,97738.53
2023-03-06T00:59:59.881Z,97737.75
2023-03-06T01:03:01.350Z,97727.66
2023-03-06T01:06:02.807Z,97729.38
2023-03-06T01:09:04.559Z,97726.78
2023-03-06T01:12:06.278Z,97716.38
2023-03-06T01:15:08.232Z,97710.44
2023-03-06T01:18:09.714Z,97696.84
2023-03-06T01:21:11.213Z,97705.34
2023-03-06T01:24:12.753Z,97700.69
2023-03-06T01:27:14.508Z,97691.25
2023-03-06T01:30:16.078Z,97693.63
2023-03-06T01:33:17.577Z,97674.97
2023-03-06T01:36:19.072Z,97681.16
2023-03-06T01:39:20.560Z,97679.47
2023-03-06T01:42:22.100Z,97669.19
2023-03-06T01:45:23.446Z,97660.56
2023-03-06T01:48:25.032Z,97651.97
2023-03-06T01:51:30.624Z,97655.44
2023-03-06T01:54:37.493Z,97658.81
2023-03-06T01:57:42.283Z,97663.09
2023-03-06T02:00:43.755Z,97654.47
2023-03-06T02:03:47.286Z,97658.53
2023-03-06T02:06:48.838Z,97648.31
2023-03-06T02:09:50.297Z,97640.59
2023-03-06T02:12:51.808Z,97640.53
2023-03-06T02:15:53.279Z,97638.16
2023-03-06T02:18:54.852Z,97636.50
2023-03-06T02:21:56.346Z,97632.97
2023-03-06T02:25:05.203Z,97629.50
2023-03-06T02:28:08.497Z,97630.31
2023-03-06T02:31:22.052Z,97624.31
2023-03-06T02:34:23.405Z,97615.66
2023-03-06T02:37:25.450Z,97617.38
2023-03-06T02:40:27.002Z,97607.94
2023-03-06T02:43:29.228Z,97602.97
2023-03-06T02:46:30.750Z,97604.63
2023-03-06T02:49:32.267Z,97599.44
2023-03-06T02:52:33.799Z,97598.63
2023-03-06T02:55:35.357Z,97601.97
2023-03-06T02:58:36.919Z,97601.28
2023-03-06T03:01:38.440Z,97596.19
2023-03-06T03:04:39.997Z,97601.25
2023-03-06T03:07:41.548Z,97591.88
2023-03-06T03:10:43.158Z,97590.56
2023-03-06T03:13:44.651Z,97581.78
2023-03-06T03:16:46.251Z,97566.50
2023-03-06T03:19:47.742Z,97569.06
2023-03-06T03:22:50.125Z,97559.66
2023-03-06T03:25:51.639Z,97555.31
2023-03-06T03:28:53.131Z,97547.69
2023-03-06T03:31:54.628Z,97559.66
2023-03-06T03:34:56.169Z,97557.13
2023-03-06T03:37:57.662Z,97557.94
2023-03-06T03:41:00.865Z,97561.28
2023-03-06T03:44:02.372Z,97555.31
2023-03-06T03:47:03.981Z,97551.72
2023-03-06T03:50:06.100Z,97546.66
2023-03-06T03:53:07.554Z,97537.22
2023-03-06T03:56:09.031Z,97551.38
2023-03-06T03:59:10.733Z,97542.97
2023-03-06T04:02:12.281Z,97540.41
2023-03-06T04:05:14.882Z,97542.88
2023-03-06T04:08:16.420Z,97543.72
2023-03-06T04:11:17.903Z,97545.41
2023-03-06T04:14:19.380Z,97543.72
2023-03-06T04:17:20.927Z,97544.47
2023-03-06T04:20:22.380Z,97536.56
2023-03-06T04:23:27.819Z,97535.75
2023-03-06T04:26:29.350Z,97529.69
2023-03-06T04:29:30.837Z,97524.69
2023-03-06T04:32:32.345Z,97531.47
2023-03-06T04:35:33.899Z,97528.03
2023-03-06T04:38:35.427Z,97531.50
2023-03-06T04:41:36.983Z,97526.34
2023-03-06T04:44:38.722Z,97528.09
2023-03-06T04:47:40.257Z,97531.47
2023-03-06T04:50:41.846Z,97533.25
2023-03-06T04:53:43.332Z,97533.97
2023-03-06T04:56:45.042Z,97534.91
2023-03-06T04:59:46.507Z,97536.63
2023-03-06T05:02:48.026Z,97535.84
2023-03-06T05:05:49.522Z,97538.38
2023-03-06T05:08:51.001Z,97532.47
2023-03-06T05:11:52.527Z,97533.38
2023-03-06T05:14:54.073Z,97528.91
2023-03-06T05:17:56.492Z,97523.69
2023-03-06T05:20:59.880Z,97529.75
2023-03-06T05:24:01.408Z,97524.69
2023-03-06T05:27:02.925Z,97522.94
2023-03-06T05:30:04.775Z,97514.44
2023-03-06T05:33:06.253Z,97517.81
2023-03-06T05:36:08.858Z,97509.31
2023-03-06T05:39:10.351Z,97515.16
2023-03-06T05:42:11.878Z,97511.56
2023-03-06T05:45:13.385Z,97504.00
2023-03-06T05:48:14.890Z,97508.31
2023-03-06T05:51:16.369Z,97510.03
2023-03-06T05:54:17.871Z,97512.66
2023-03-06T05:57:20.319Z,97503.19
2023-03-06T06:00:22.384Z,97510.09
2023-03-06T06:03:23.895Z,97511.81
2023-03-06T06:06:25.384Z,97504.00
2023-03-06T06:09:26.966Z,97507.28
2023-03-06T06:12:28.473Z,97501.28
2023-03-06T06:15:29.977Z,97509.84
2023-03-06T06:18:31.424Z,97508.06
2023-03-06T06:21:32.892Z,97511.56
2023-03-06T06:24:34.405Z,97517.63
2023-03-06T06:27:35.953Z,97516.72
2023-03-06T06:30:37.449Z,97520.94
2023-03-06T06:33:39.709Z,97525.22
2023-03-06T06:36:41.370Z,97523.56
2023-03-06T06:39:42.858Z,97529.59
2023-03-06T06:42:44.628Z,97536.47
2023-03-06T06:45:46.406Z,97521.84
2023-03-06T06:48:54.565Z,97528.66
2023-03-06T06:51:56.057Z,97527.00
2023-03-06T06:54:57.733Z,97532.22
2023-03-06T06:57:59.254Z,97533.84
2023-03-06T07:01:07.702Z,97538.22
2023-03-06T07:04:12.194Z,97548.63
2023-03-06T07:07:13.748Z,97545.84
2023-03-06T07:10:15.872Z,97543.47
2023-03-06T07:13:17.374Z,97545.97
2023-03-06T07:16:19.013Z,97546.06
2023-03-06T07:19:20.529Z,97546.97
2023-03-06T07:22:22.065Z,97550.47
2023-03-06T07:25:23.625Z,97554.69
2023-03-06T07:28:25.126Z,97555.66
2023-03-06T07:31:26.910Z,97559.06
2023-03-06T07:34:28.572Z,97561.59
2023-03-06T07:37:30.074Z,97559.03
2023-03-06T07:40:31.557Z,97558.19
2023-03-06T07:43:33.043Z,97560.88
2023-03-06T07:46:34.536Z,97560.03
2023-03-06T07:49:36.069Z,97564.50
2023-03-06T07:52:37.589Z,97566.34
2023-03-06T07:55:40.370Z,97570.06
2023-03-06T07:58:43.422Z,97573.81
2023-03-06T08:01:45.061Z,97575.47
2023-03-06T08:04:52.286Z,97587.53
2023-03-06T08:07:53.770Z,97593.66
2023-03-06T08:10:55.250Z,97588.38
2023-03-06T08:13:57.208Z,97595.44
2023-03-06T08:16:58.728Z,97598.16
2023-03-06T08:20:00.208Z,97597.72
2023-03-06T08:23:01.706Z,97603.00
2023-03-06T08:26:05.781Z,97604.13
2023-03-06T08:29:08.027Z,97599.78
2023-03-06T08:32:11.620Z,97612.84
2023-03-06T08:35:13.109Z,97610.34
2023-03-06T08:38:14.669Z,97612.06
2023-03-06T08:41:16.192Z,97619.78
2023-03-06T08:44:17.825Z,97618.06
2023-03-06T08:47:19.334Z,97626.69
2023-03-06T08:50:20.804Z,97624.09
2023-03-06T08:53:30.434Z,97631.97
2023-03-06T08:56:38.267Z,97630.22
2023-03-06T08:59:39.825Z,97632.03
2023-03-06T09:02:41.400Z,97636.44
2023-03-06T09:05:43.018Z,97636.47
2023-03-06T09:08:44.739Z,97636.38
2023-03-06T09:11:46.318Z,97645.88
2023-03-06T09:14:47.803Z,97648.44
2023-03-06T09:17:49.454Z,97651.00
2023-03-06T09:20:50.990Z,97646.78
2023-03-06T09:23:52.518Z,97651.97
2023-03-06T09:26:54.036Z,97651.03
2023-03-06T09:29:55.915Z,97648.53
2023-03-06T09:32:57.405Z,97660.56
2023-03-06T09:35:58.915Z,97646.78
2023-03-06T09:39:00.517Z,97656.22
2023-03-06T09:42:02.005Z,97651.19
2023-03-06T09:45:03.715Z,97653.78
2023-03-06T09:48:05.338Z,97661.59
2023-03-06T09:51:15.233Z,97661.50
2023-03-06T09:54:16.794Z,97660.72
2023-03-06T09:57:38.197Z,97657.97
2023-03-06T10:00:55.818Z,97674.31
2023-03-06T10:04:11.608Z,97667.47
2023-03-06T10:07:22.663Z,97673.50
2023-03-06T10:10:32.828Z,97669.16
2023-03-06T10:13:46.972Z,97677.66
2023-03-06T10:16:48.451Z,97675.06
2023-03-06T10:19:49.964Z,97669.88
2023-03-06T10:23:03.151Z,97670.06
2023-03-06T10:26:17.044Z,97677.66
2023-03-06T10:29:47.552Z,97666.66
2023-03-06T10:33:27.223Z,97666.72
2023-03-06T10:36:29.062Z,97665.00
2023-03-06T10:39:30.655Z,97660.69
2023-03-06T10:42:32.188Z,97664.97
2023-03-06T10:45:47.373Z,97655.50
2023-03-06T10:48:57.938Z,97664.91
2023-03-06T10:52:09.410Z,97654.69
2023-03-06T10:55:24.514Z,97659.94
2023-03-06T10:58:30.706Z,97653.06
2023-03-06T11:01:32.217Z,97653.91
2023-03-06T11:04:34.657Z,97648.78
2023-03-06T11:07:36.430Z,97653.22
2023-03-06T11:10:38.004Z,97657.56
2023-03-06T11:13:40.941Z,97654.88
2023-03-06T11:16:52.624Z,97656.66
2023-03-06T11:20:17.131Z,97655.78
2023-03-06T11:23:29.484Z,97660.97
2023-03-06T11:26:37.234Z,97657.44
2023-03-06T11:29:44.897Z,97647.97
2023-03-06T11:32:50.351Z,97647.97
2023-03-06T11:36:09.634Z,97648.81
2023-03-06T11:39:19.535Z,97647.84
2023-03-06T11:42:23.490Z,97641.94
2023-03-06T11:45:26.624Z,97642.81
2023-03-06T11:48:32.344Z,97634.13
2023-03-06T11:51:35.668Z,97639.28
2023-03-06T11:54:37.153Z,97634.94
2023-03-06T11:57:53.330Z,97635.94
2023-03-06T12:01:22.097Z,97630.72
2023-03-06T12:04:47.766Z,97623.91
2023-03-06T12:08:03.454Z,97619.59
2023-03-06T12:14:39.578Z,97619.50
2023-03-06T12:17:46.684Z,97622.91
2023-03-06T12:20:59.295Z,97621.28
2023-03-06T12:24:07.527Z,97608.34
2023-03-06T12:27:34.910Z,97610.13
2023-03-06T12:30:43.101Z,97607.41
2023-03-06T12:34:12.571Z,97612.66
2023-03-06T12:37:26.074Z,97603.09
2023-03-06T12:40:43.282Z,97604.00
2023-03-06T12:43:48.681Z,97597.16
2023-03-06T12:46:54.352Z,97593.63
2023-03-06T12:50:04.794Z,97599.69
2023-03-06T12:53:08.270Z,97591.97
2023-03-06T12:56:09.763Z,97591.09
2023-03-06T12:59:37.087Z,97591.06
2023-03-06T13:03:12.358Z,97595.41
2023-03-06T13:06:39.226Z,97586.75
2023-03-06T13:10:17.476Z,97596.34
2023-03-06T13:13:41.304Z,97590.25
2023-03-06T13:16:42.801Z,97586.78
2023-03-06T13:19:44.334Z,97591.91
2023-03-06T13:22:46.606Z,97585.00
2023-03-06T13:25:49.294Z,97580.59
2023-03-06T13:28:51.801Z,97592.72
2023-03-06T13:31:53.149Z,97586.59
2023-03-06T13:34:54.619Z,97593.50
2023-03-06T13:37:56.728Z,97588.22
2023-03-06T13:41:22.947Z,97589.84
2023-03-06T13:44:24.481Z,97590.53
2023-03-06T13:47:39.766Z,97580.16
2023-03-06T13:50:50.525Z,97591.22
2023-03-06T13:54:30.505Z,97586.88
2023-03-06T13:57:49.905Z,97594.63
2023-03-06T14:00:54.704Z,97588.63
2023-03-06T14:04:02.343Z,97586.66
2023-03-06T14:07:11.834Z,97582.41
2023-03-06T14:10:13.204Z,97577.34
2023-03-06T14:13:24.281Z,97583.19
2023-03-06T14:16:40.596Z,97584.25
2023-03-06T14:19:50.311Z,97579.09
2023-03-06T14:22:51.790Z,97575.81
2023-03-06T14:26:00.857Z,97582.56
2023-03-06T14:29:02.585Z,97574.09
2023-03-06T14:32:08.512Z,97577.22
2023-03-06T14:35:34.448Z,97572.09
2023-03-06T14:38:38.024Z,97568.72
2023-03-06T14:41:39.519Z,97570.59
2023-03-06T14:44:41.067Z,97567.31
2023-03-06T14:47:43.039Z,97561.25
2023-03-06T14:50:52.551Z,97560.38
2023-03-06T14:53:54.166Z,97557.69
2023-03-06T14:57:02.047Z,97555.94
2023-03-06T15:00:04.618Z,97557.84
2023-03-06T15:03:07.641Z,97545.09
2023-03-06T15:06:11.960Z,97547.59
2023-03-06T15:09:30.344Z,97550.09
2023-03-06T15:12:33.989Z,97547.38
2023-03-06T15:15:35.492Z,97549.28
2023-03-06T15:18:38.904Z,97547.59
2023-03-06T15:21:40.494Z,97547.38
2023-03-06T15:24:42.028Z,97550.06
2023-03-06T15:28:00.056Z,97544.13
2023-03-06T15:31:10.724Z,97541.44
2023-03-06T15:34:12.305Z,97545.94
2023-03-06T15:37:27.607Z,97536.38
2023-03-06T15:40:31.782Z,97539.69
2023-03-06T15:43:39.479Z,97543.94
2023-03-06T15:46:41.215Z,97542.28
2023-03-06T15:49:42.738Z,97534.47
2023-03-06T15:52:45.001Z,97536.25
2023-03-06T15:55:46.846Z,97531.91
2023-03-06T15:58:48.318Z,97536.13
2023-03-06T16:01:50.231Z,97526.00
2023-03-06T16:04:51.847Z,97526.72
2023-03-06T16:07:53.586Z,97522.44
2023-03-06T16:10:55.124Z,97534.38
2023-03-06T16:13:57.383Z,97525.03
2023-03-06T16:16:59.526Z,97528.47
2023-03-06T16:20:01.112Z,97527.56
2023-03-06T16:23:07.774Z,97529.22
2023-03-06T16:26:18.254Z,97524.88
2023-03-06T16:29:21.779Z,97525.69
2023-03-06T16:32:27.663Z,97526.66
2023-03-06T16:35:30.417Z,97530.81
2023-03-06T16:38:31.967Z,97519.66
2023-03-06T16:41:33.471Z,97526.56
2023-03-06T16:44:34.977Z,97519.56
2023-03-06T16:47:36.668Z,97530.75
2023-03-06T16:50:39.118Z,97531.63
2023-03-06T16:53:40.627Z,97526.41
2023-03-06T16:56:42.311Z,97525.47
2023-03-06T16:59:43.870Z,97529.81
2023-03-06T17:02:47.413Z,97532.38
2023-03-06T17:05:48.915Z,97534.09
2023-03-06T17:08:50.509Z,97532.22
2023-03-06T17:11:51.990Z,97540.78
2023-03-06T17:14:53.508Z,97550.41
2023-03-06T17:17:55.018Z,97541.97
2023-03-06T17:20:56.951Z,97551.44
2023-03-06T17:23:58.430Z,97545.41
2023-03-06T17:27:00.145Z,97545.44
2023-03-06T17:30:01.703Z,97553.25
2023-03-06T17:33:03.290Z,97552.31
2023-03-06T17:36:04.954Z,97552.28
2023-03-06T17:39:06.443Z,97548.69
2023-03-06T17:42:08.758Z,97558.25
2023-03-06T17:45:11.518Z,97558.19
2023-03-06T17:48:13.513Z,97552.94
2023-03-06T17:51:15.059Z,97546.88
2023-03-06T17:54:16.561Z,97552.91
2023-03-06T17:57:18.096Z,97558.00
2023-03-06T18:00:20.216Z,97548.47
2023-03-06T18:03:21.747Z,97561.41
2023-03-06T18:06:24.582Z,97560.53
2023-03-06T18:09:26.481Z,97562.13
2023-03-06T18:12:27.978Z,97568.06
2023-03-06T18:15:29.518Z,97568.09
2023-03-06T18:18:31.496Z,97565.69
2023-03-06T18:21:33.224Z,97565.66
2023-03-06T18:24:34.843Z,97560.38
2023-03-06T18:27:36.361Z,97547.53
2023-03-06T18:30:39.062Z,97548.28
2023-03-06T18:33:40.393Z,97537.13
2023-03-06T18:36:47.099Z,97537.97
2023-03-06T18:39:48.670Z,97535.34
2023-03-06T18:42:52.231Z,97526.72
2023-03-06T18:45:57.111Z,97530.06
2023-03-06T18:48:58.760Z,97535.13
2023-03-06T18:52:00.249Z,97532.50
2023-03-06T18:55:01.820Z,97535.06
2023-03-06T18:58:03.345Z,97529.06
2023-03-06T19:01:07.902Z,97528.25
2023-03-06T19:04:09.728Z,97531.69
2023-03-06T19:07:13.040Z,97526.38
2023-03-06T19:10:14.618Z,97516.94
2023-03-06T19:13:16.142Z,97521.38
2023-03-06T19:16:18.894Z,97519.63
2023-03-06T19:19:20.442Z,97516.22
2023-03-06T19:22:23.017Z,97518.66
2023-03-06T19:25:24.680Z,97523.75
2023-03-06T19:28:26.343Z,97515.13
2023-03-06T19:31:28.123Z,97513.31
2023-03-06T19:34:29.724Z,97506.44
2023-03-06T19:37:31.368Z,97499.66
2023-03-06T19:40:32.888Z,97497.91
2023-03-06T19:43:34.641Z,97490.03
2023-03-06T19:46:36.270Z,97482.34
2023-03-06T19:49:38.854Z,97484.13
2023-03-06T19:52:40.350Z,97483.25
2023-03-06T19:55:42.433Z,97478.06
2023-03-06T19:58:43.939Z,97468.72
2023-03-06T20:01:45.499Z,97472.84
2023-03-06T20:04:47.050Z,97475.44
2023-03-06T20:07:48.681Z,97473.72
2023-03-06T20:10:50.194Z,97477.97
2023-03-06T20:13:52.279Z,97474.59
2023-03-06T20:16:53.776Z,97466.94
2023-03-06T20:19:55.310Z,97459.13
2023-03-06T20:22:56.767Z,97465.94
2023-03-06T20:26:05.964Z,97454.84
2023-03-06T20:29:07.596Z,97460.91
2023-03-06T20:32:09.096Z,97457.41
2023-03-06T20:35:10.668Z,97455.69
2023-03-06T20:38:12.135Z,97453.94
2023-03-06T20:41:21.789Z,97448.78
2023-03-06T20:44:23.305Z,97452.97
2023-03-06T20:47:24.771Z,97452.16
2023-03-06T20:50:26.379Z,97445.34
2023-03-06T20:53:28.000Z,97449.53
2023-03-06T20:56:31.005Z,97459.78
2023-03-06T20:59:32.557Z,97456.34
2023-03-06T21:02:34.032Z,97455.50
2023-03-06T21:05:35.532Z,97445.03
2023-03-06T21:08:37.022Z,97447.81
2023-03-06T21:11:38.505Z,97446.75
2023-03-06T21:14:40.028Z,97433.22
2023-03-06T21:17:41.594Z,97429.75
2023-03-06T21:20:43.195Z,97440.84
2023-03-06T21:23:45.500Z,97422.84
2023-03-06T21:26:47.161Z,97430.34
2023-03-06T21:29:48.654Z,97429.63
2023-03-06T21:32:50.978Z,97428.78
2023-03-06T21:35:52.854Z,97427.09
2023-03-06T21:38:54.460Z,97429.50
2023-03-06T21:41:55.979Z,97421.56
2023-03-06T21:44:57.508Z,97420.69
2023-03-06T21:47:59.344Z,97409.50
2023-03-06T21:51:15.755Z,97411.19
2023-03-06T21:54:17.310Z,97407.25
2023-03-06T21:57:18.816Z,97412.13
2023-03-06T22:00:20.537Z,97401.25
2023-03-06T22:03:22.112Z,97399.47
2023-03-06T22:06:25.371Z,97408.97
2023-03-06T22:09:26.860Z,97408.09
2023-03-06T22:12:28.329Z,97400.38
2023-03-06T22:15:29.806Z,97403.75
2023-03-06T22:18:31.307Z,97405.53
2023-03-06T22:21:32.956Z,97416.72
2023-03-06T22:24:34.428Z,97426.97
2023-03-06T22:27:35.920Z,97410.44
2023-03-06T22:30:37.491Z,97407.59
2023-03-06T22:33:38.998Z,97398.22
2023-03-06T22:36:40.471Z,97399.03
2023-03-06T22:39:41.986Z,97404.56
2023-03-06T22:42:43.471Z,97405.44
2023-03-06T22:45:45.022Z,97402.91
2023-03-06T22:48:46.495Z,97408.00
2023-03-06T22:51:47.973Z,97406.44
2023-03-06T22:54:49.726Z,97407.34
2023-03-06T22:57:51.290Z,97412.38
2023-03-06T23:00:53.326Z,97404.72
2023-03-06T23:03:56.235Z,97409.03
2023-03-06T23:06:57.760Z,97410.56
2023-03-06T23:09:59.428Z,97413.13
2023-03-06T23:13:00.920Z,97401.91
2023-03-06T23:16:03.999Z,97387.88
2023-03-06T23:19:05.598Z,97386.16
2023-03-06T23:22:07.112Z,97383.50
2023-03-06T23:25:10.894Z,97376.78
2023-03-06T23:28:12.370Z,97380.34
2023-03-06T23:31:15.748Z,97372.75
2023-03-06T23:34:17.240Z,97372.78
2023-03-06T23:37:18.713Z,97378.66
2023-03-06T23:40:20.231Z,97383.78
2023-03-06T23:43:21.700Z,97383.88
2023-03-06T23:46:23.308Z,97381.31
2023-03-06T23:49:24.857Z,97377.13
2023-03-06T23:52:26.681Z,97383.97
2023-03-06T23:55:28.205Z,97393.41
2023-03-06T23:58:29.681Z,97397.69
